createdAt,value
2016-11-30T00:00:52.543Z,0
2016-11-30T00:01:52.228Z,0
2016-11-30T00:02:52.513Z,0
2016-11-30T00:03:52.190Z,0
2016-11-30T00:04:52.172Z,0
2016-11-30T00:05:52.160Z,0
2016-11-30T00:06:52.141Z,0
2016-11-30T00:07:52.135Z,0
2016-11-30T00:08:52.111Z,0
2016-11-30T00:09:52.085Z,0
2016-11-30T00:10:52.077Z,0
2016-11-30T00:11:52.056Z,0
2016-11-30T00:12:52.046Z,0
2016-11-30T00:13:52.027Z,0
2016-11-30T00:14:52.013Z,0
2016-11-30T00:15:51.986Z,0
2016-11-30T00:16:51.975Z,0
2016-11-30T00:17:51.960Z,0
2016-11-30T00:18:51.934Z,0
2016-11-30T00:19:52.222Z,0
2016-11-30T00:20:51.910Z,0
2016-11-30T00:21:51.888Z,0
2016-11-30T00:22:51.871Z,0
2016-11-30T00:23:51.852Z,0
2016-11-30T00:24:51.837Z,0
2016-11-30T00:25:51.821Z,0
2016-11-30T00:26:51.797Z,0
2016-11-30T00:27:51.784Z,0
2016-11-30T00:28:51.770Z,0
2016-11-30T00:29:51.748Z,0
2016-11-30T00:30:51.735Z,0
2016-11-30T00:31:51.722Z,0
2016-11-30T00:32:51.694Z,0
2016-11-30T00:33:51.686Z,0
2016-11-30T00:34:51.670Z,0
2016-11-30T00:35:51.655Z,0
2016-11-30T00:36:51.637Z,0
2016-11-30T00:37:51.615Z,0
2016-11-30T00:38:51.593Z,0
2016-11-30T00:39:51.578Z,0
2016-11-30T00:40:51.595Z,0
2016-11-30T00:41:51.848Z,0
2016-11-30T00:42:51.530Z,0
2016-11-30T00:43:51.512Z,0
2016-11-30T00:44:51.492Z,0
2016-11-30T00:45:51.480Z,0
2016-11-30T00:46:51.456Z,0
2016-11-30T00:47:51.442Z,0
2016-11-30T00:48:51.432Z,0
2016-11-30T00:49:51.408Z,0
2016-11-30T00:50:51.394Z,0
2016-11-30T00:51:51.374Z,0
2016-11-30T00:52:51.355Z,0
2016-11-30T00:53:51.341Z,0
2016-11-30T00:54:51.323Z,0
2016-11-30T00:55:51.606Z,0
2016-11-30T00:56:51.288Z,0
2016-11-30T00:57:51.569Z,0
2016-11-30T00:58:51.246Z,0
2016-11-30T00:59:51.241Z,0
2016-11-30T01:00:51.223Z,0
2016-11-30T01:01:51.204Z,0
2016-11-30T01:02:51.188Z,0
2016-11-30T01:03:51.178Z,0
2016-11-30T01:04:51.155Z,0
2016-11-30T01:05:51.132Z,0
2016-11-30T01:06:51.110Z,0
2016-11-30T01:07:51.104Z,0
2016-11-30T01:08:51.077Z,0
2016-11-30T01:09:51.057Z,0
2016-11-30T01:10:51.046Z,0
2016-11-30T01:11:51.021Z,0
2016-11-30T01:12:51.015Z,0
2016-11-30T01:13:50.993Z,0
2016-11-30T01:14:50.982Z,0
2016-11-30T01:15:50.956Z,0
2016-11-30T01:16:50.940Z,0
2016-11-30T01:17:50.929Z,0
2016-11-30T01:18:50.912Z,0
2016-11-30T01:19:50.891Z,0
2016-11-30T01:20:50.876Z,0
2016-11-30T01:21:50.861Z,0
2016-11-30T01:22:50.846Z,0
2016-11-30T01:23:50.817Z,0
2016-11-30T01:24:50.799Z,0
2016-11-30T01:25:50.783Z,0
2016-11-30T01:26:50.765Z,0
2016-11-30T01:27:50.744Z,0
2016-11-30T01:28:50.729Z,0
2016-11-30T01:29:50.713Z,0
2016-11-30T01:30:50.705Z,0
2016-11-30T01:31:50.685Z,0
2016-11-30T01:32:50.657Z,0
2016-11-30T01:33:50.649Z,0
2016-11-30T01:34:50.624Z,0
2016-11-30T01:35:50.609Z,0
2016-11-30T01:36:50.594Z,0
2016-11-30T01:37:50.575Z,0
2016-11-30T01:38:50.553Z,0
2016-11-30T01:39:50.544Z,0
2016-11-30T01:40:50.522Z,0
2016-11-30T01:41:50.807Z,0
2016-11-30T01:42:50.486Z,0
2016-11-30T01:43:50.475Z,0
2016-11-30T01:44:50.453Z,0
2016-11-30T01:45:50.451Z,0
2016-11-30T01:46:50.415Z,0
2016-11-30T01:47:50.400Z,0
2016-11-30T01:48:50.397Z,0
2016-11-30T01:49:50.379Z,0
2016-11-30T01:50:50.345Z,0
2016-11-30T01:51:50.334Z,0
2016-11-30T01:52:50.321Z,0
2016-11-30T01:53:50.607Z,0
2016-11-30T01:54:50.613Z,0
2016-11-30T01:55:50.264Z,0
2016-11-30T01:56:50.272Z,0
2016-11-30T01:57:50.235Z,0
2016-11-30T01:58:50.215Z,0
2016-11-30T01:59:50.189Z,0
2016-11-30T02:00:50.174Z,0
2016-11-30T02:01:50.158Z,0
2016-11-30T02:02:50.445Z,0
2016-11-30T02:03:50.119Z,0
2016-11-30T02:04:50.104Z,0
2016-11-30T02:05:50.090Z,0
2016-11-30T02:06:50.107Z,0
2016-11-30T02:07:50.053Z,0
2016-11-30T02:08:50.038Z,0
2016-11-30T02:09:50.016Z,0
2016-11-30T02:10:50.001Z,0
2016-11-30T02:11:49.984Z,0
2016-11-30T02:12:49.962Z,0
2016-11-30T02:13:49.948Z,0
2016-11-30T02:14:49.931Z,0
2016-11-30T02:15:49.908Z,0
2016-11-30T02:16:49.920Z,0
2016-11-30T02:17:49.881Z,0
2016-11-30T02:18:49.856Z,0
2016-11-30T02:19:49.848Z,0
2016-11-30T02:20:49.830Z,0
2016-11-30T02:21:49.807Z,0
2016-11-30T02:22:49.799Z,0
2016-11-30T02:23:49.774Z,0
2016-11-30T02:24:49.756Z,0
2016-11-30T02:25:49.741Z,0
2016-11-30T02:26:49.725Z,0
2016-11-30T02:27:49.713Z,0
2016-11-30T02:28:49.690Z,0
2016-11-30T02:29:49.664Z,0
2016-11-30T02:30:49.651Z,0
2016-11-30T02:31:49.636Z,0
2016-11-30T02:32:49.616Z,0
2016-11-30T02:33:49.600Z,0
2016-11-30T02:34:49.579Z,0
2016-11-30T02:35:49.569Z,0
2016-11-30T02:36:49.550Z,0
2016-11-30T02:37:49.529Z,0
2016-11-30T02:38:49.513Z,0
2016-11-30T02:39:49.502Z,0
2016-11-30T02:40:49.480Z,0
2016-11-30T02:41:49.462Z,0
2016-11-30T02:42:49.447Z,0
2016-11-30T02:43:49.430Z,0
2016-11-30T02:44:49.418Z,0
2016-11-30T02:45:49.400Z,0
2016-11-30T02:46:49.383Z,0
2016-11-30T02:47:49.369Z,0
2016-11-30T02:48:49.353Z,0
2016-11-30T02:49:49.334Z,0
2016-11-30T02:50:49.658Z,0
2016-11-30T02:51:49.321Z,0
2016-11-30T02:52:49.280Z,0
2016-11-30T02:53:49.269Z,0
2016-11-30T02:54:49.247Z,0
2016-11-30T02:55:49.235Z,0
2016-11-30T02:56:49.213Z,0
2016-11-30T02:57:49.200Z,0
2016-11-30T02:58:49.179Z,0
2016-11-30T02:59:49.170Z,0
2016-11-30T03:00:49.140Z,0
2016-11-30T03:01:49.130Z,0
2016-11-30T03:02:49.111Z,0
2016-11-30T03:03:49.091Z,0
2016-11-30T03:04:49.084Z,0
2016-11-30T03:05:49.072Z,0
2016-11-30T03:06:49.052Z,0
2016-11-30T03:07:49.041Z,0
2016-11-30T03:08:49.018Z,0
2016-11-30T03:09:49.000Z,0
2016-11-30T03:10:48.981Z,0
2016-11-30T03:11:48.969Z,0
2016-11-30T03:12:48.950Z,0
2016-11-30T03:13:48.937Z,0
2016-11-30T03:14:48.910Z,0
2016-11-30T03:15:48.921Z,0
2016-11-30T03:16:48.887Z,0
2016-11-30T03:17:48.867Z,0
2016-11-30T03:18:48.855Z,0
2016-11-30T03:19:48.838Z,0
2016-11-30T03:20:48.815Z,0
2016-11-30T03:21:48.803Z,0
2016-11-30T03:22:48.788Z,0
2016-11-30T03:23:48.770Z,0
2016-11-30T03:24:48.755Z,0
2016-11-30T03:25:48.729Z,0
2016-11-30T03:26:48.720Z,0
2016-11-30T03:27:48.724Z,0
2016-11-30T03:28:48.691Z,0
2016-11-30T03:29:48.673Z,0
2016-11-30T03:30:48.658Z,0
2016-11-30T03:31:48.632Z,0
2016-11-30T03:32:48.627Z,0
2016-11-30T03:33:48.607Z,0
2016-11-30T03:34:48.592Z,0
2016-11-30T03:35:48.576Z,0
2016-11-30T03:36:48.565Z,0
2016-11-30T03:37:48.541Z,0
2016-11-30T03:38:48.521Z,0
2016-11-30T03:39:48.511Z,0
2016-11-30T03:40:48.498Z,0
2016-11-30T03:42:14.146Z,0
2016-11-30T03:42:48.455Z,0
2016-11-30T03:43:48.438Z,0
2016-11-30T03:44:48.421Z,0
2016-11-30T03:45:48.407Z,0
2016-11-30T03:46:48.395Z,0
2016-11-30T03:47:48.375Z,0
2016-11-30T03:48:48.362Z,0
2016-11-30T03:49:48.340Z,0
2016-11-30T03:50:48.626Z,0
2016-11-30T03:51:48.308Z,0
2016-11-30T03:52:48.326Z,0
2016-11-30T03:53:48.277Z,0
2016-11-30T03:54:48.259Z,0
2016-11-30T03:55:48.245Z,0
2016-11-30T03:56:48.237Z,0
2016-11-30T03:57:48.213Z,0
2016-11-30T03:58:48.194Z,0
2016-11-30T03:59:48.209Z,0
2016-11-30T04:00:48.167Z,0
2016-11-30T04:01:48.448Z,0
2016-11-30T04:02:48.133Z,0
2016-11-30T04:03:48.117Z,0
2016-11-30T04:04:48.101Z,0
2016-11-30T04:05:48.093Z,0
2016-11-30T04:06:48.072Z,0
2016-11-30T04:07:48.061Z,0
2016-11-30T04:08:48.044Z,0
2016-11-30T04:09:48.033Z,0
2016-11-30T04:10:48.039Z,0
2016-11-30T04:11:47.997Z,0
2016-11-30T04:12:47.994Z,0
2016-11-30T04:13:47.964Z,0
2016-11-30T04:14:47.949Z,0
2016-11-30T04:15:47.932Z,0
2016-11-30T04:16:47.913Z,0
2016-11-30T04:17:47.898Z,0
2016-11-30T04:18:47.879Z,0
2016-11-30T04:19:47.910Z,0
2016-11-30T04:20:47.859Z,0
2016-11-30T04:21:47.838Z,0
2016-11-30T04:22:47.831Z,0
2016-11-30T04:23:47.807Z,0
2016-11-30T04:24:47.788Z,0
2016-11-30T04:25:47.789Z,0
2016-11-30T04:26:47.789Z,0
2016-11-30T04:27:48.050Z,0
2016-11-30T04:28:47.728Z,0
2016-11-30T04:29:47.714Z,0
2016-11-30T04:30:47.696Z,0
2016-11-30T04:31:47.979Z,0
2016-11-30T04:32:47.665Z,0
2016-11-30T04:33:47.652Z,0
2016-11-30T04:34:47.635Z,0
2016-11-30T04:35:47.623Z,0
2016-11-30T04:36:47.603Z,0
2016-11-30T04:37:47.590Z,0
2016-11-30T04:38:47.604Z,0
2016-11-30T04:39:47.553Z,0
2016-11-30T04:40:47.544Z,0
2016-11-30T04:41:47.521Z,0
2016-11-30T04:42:47.510Z,0
2016-11-30T04:43:47.489Z,0
2016-11-30T04:44:47.475Z,0
2016-11-30T04:45:47.496Z,0
2016-11-30T04:46:47.444Z,0
2016-11-30T04:47:47.428Z,0
2016-11-30T04:48:47.420Z,0
2016-11-30T04:49:47.429Z,0
2016-11-30T04:50:47.389Z,0
2016-11-30T04:51:47.369Z,0
2016-11-30T04:52:47.387Z,0
2016-11-30T04:53:47.336Z,0
2016-11-30T04:54:47.321Z,0
2016-11-30T04:55:47.308Z,0
2016-11-30T04:56:47.294Z,0
2016-11-30T04:57:47.280Z,0
2016-11-30T04:58:47.258Z,0
2016-11-30T04:59:47.249Z,0
2016-11-30T05:00:47.223Z,0
2016-11-30T05:01:47.210Z,0
2016-11-30T05:02:47.199Z,0
2016-11-30T05:03:47.184Z,0
2016-11-30T05:04:47.175Z,0
2016-11-30T05:05:47.196Z,0
2016-11-30T05:06:47.133Z,0
2016-11-30T05:07:47.128Z,0
2016-11-30T05:08:47.104Z,0
2016-11-30T05:09:47.094Z,0
2016-11-30T05:10:47.082Z,0
2016-11-30T05:11:47.069Z,0
2016-11-30T05:12:47.040Z,0
2016-11-30T05:13:47.033Z,0
2016-11-30T05:14:47.019Z,0
2016-11-30T05:15:46.998Z,0
2016-11-30T05:16:46.980Z,0
2016-11-30T05:17:47.270Z,0
2016-11-30T05:18:46.951Z,0
2016-11-30T05:19:46.941Z,0
2016-11-30T05:20:46.929Z,0
2016-11-30T05:21:46.908Z,0
2016-11-30T05:22:46.899Z,0
2016-11-30T05:23:46.876Z,0
2016-11-30T05:24:46.865Z,0
2016-11-30T05:25:46.847Z,0
2016-11-30T05:26:46.836Z,0
2016-11-30T05:27:46.823Z,0
2016-11-30T05:28:46.798Z,0
2016-11-30T05:29:46.779Z,0
2016-11-30T05:30:46.774Z,0
2016-11-30T05:31:46.791Z,0
2016-11-30T05:32:46.740Z,0
2016-11-30T05:33:47.025Z,0
2016-11-30T05:34:46.710Z,0
2016-11-30T05:35:46.698Z,0
2016-11-30T05:36:46.680Z,0
2016-11-30T05:37:46.664Z,0
2016-11-30T05:38:46.652Z,0
2016-11-30T05:39:46.633Z,0
2016-11-30T05:40:46.640Z,0
2016-11-30T05:41:46.605Z,0
2016-11-30T05:42:46.596Z,0
2016-11-30T05:43:46.576Z,0
2016-11-30T05:44:46.563Z,0
2016-11-30T05:45:46.541Z,0
2016-11-30T05:46:46.528Z,0
2016-11-30T05:47:46.520Z,0
2016-11-30T05:48:46.504Z,0
2016-11-30T05:49:46.484Z,0
2016-11-30T05:50:46.474Z,0
2016-11-30T05:51:46.459Z,0
2016-11-30T05:52:46.446Z,0
2016-11-30T05:53:46.420Z,0
2016-11-30T05:54:46.416Z,0
2016-11-30T05:55:46.396Z,0
2016-11-30T05:56:46.382Z,0
2016-11-30T05:57:46.372Z,0
2016-11-30T05:58:46.349Z,0
2016-11-30T05:59:46.330Z,0
2016-11-30T06:00:46.325Z,0
2016-11-30T06:01:46.313Z,0
2016-11-30T06:02:46.288Z,0
2016-11-30T06:03:46.278Z,0
2016-11-30T06:04:46.267Z,0
2016-11-30T06:05:46.243Z,0
2016-11-30T06:06:46.235Z,0
2016-11-30T06:07:46.217Z,0
2016-11-30T06:08:46.207Z,0
2016-11-30T06:09:46.183Z,0
2016-11-30T06:10:46.171Z,0
2016-11-30T06:11:46.160Z,0
2016-11-30T06:12:46.144Z,0
2016-11-30T06:13:46.132Z,0
2016-11-30T06:14:46.112Z,0
2016-11-30T06:15:46.102Z,0
2016-11-30T06:16:46.084Z,0
2016-11-30T06:17:46.067Z,4
2016-11-30T06:18:46.053Z,4
2016-11-30T06:19:46.338Z,4
2016-11-30T06:20:46.024Z,4
2016-11-30T06:21:46.009Z,4
2016-11-30T06:22:45.995Z,8
2016-11-30T06:23:45.979Z,4
2016-11-30T06:24:45.959Z,8
2016-11-30T06:25:45.947Z,8
2016-11-30T06:26:45.941Z,12
2016-11-30T06:27:45.923Z,12
2016-11-30T06:28:45.914Z,12
2016-11-30T06:29:45.892Z,12
2016-11-30T06:30:45.869Z,16
2016-11-30T06:31:45.863Z,20
2016-11-30T06:32:45.853Z,20
2016-11-30T06:33:45.861Z,24
2016-11-30T06:34:45.826Z,28
2016-11-30T06:35:45.807Z,36
2016-11-30T06:36:45.784Z,36
2016-11-30T06:37:45.769Z,44
2016-11-30T06:38:45.763Z,52
2016-11-30T06:39:46.043Z,56
2016-11-30T06:40:45.732Z,64
2016-11-30T06:41:45.718Z,68
2016-11-30T06:42:45.706Z,72
2016-11-30T06:43:45.692Z,80
2016-11-30T06:44:45.670Z,88
2016-11-30T06:45:45.948Z,92
2016-11-30T06:46:45.639Z,100
2016-11-30T06:47:45.625Z,100
2016-11-30T06:48:45.617Z,96
2016-11-30T06:49:45.595Z,104
2016-11-30T06:50:45.587Z,108
2016-11-30T06:51:45.570Z,112
2016-11-30T06:52:45.582Z,120
2016-11-30T06:53:45.534Z,128
2016-11-30T06:54:45.524Z,124
2016-11-30T06:55:45.518Z,112
2016-11-30T06:56:45.494Z,104
2016-11-30T06:57:45.483Z,104
2016-11-30T06:58:45.466Z,108
2016-11-30T06:59:45.450Z,116
2016-11-30T07:00:45.440Z,128
2016-11-30T07:01:45.423Z,140
2016-11-30T07:02:45.408Z,156
2016-11-30T07:03:45.407Z,168
2016-11-30T07:04:45.375Z,184
2016-11-30T07:05:45.361Z,196
2016-11-30T07:06:45.358Z,208
2016-11-30T07:07:45.337Z,216
2016-11-30T07:08:45.317Z,232
2016-11-30T07:09:45.303Z,256
2016-11-30T07:10:45.593Z,292
2016-11-30T07:11:45.280Z,320
2016-11-30T07:12:45.272Z,332
2016-11-30T07:13:45.255Z,352
2016-11-30T07:14:45.243Z,396
2016-11-30T07:15:45.219Z,444
2016-11-30T07:16:45.204Z,480
2016-11-30T07:17:45.189Z,516
2016-11-30T07:18:45.177Z,544
2016-11-30T07:19:45.167Z,576
2016-11-30T07:20:45.149Z,600
2016-11-30T07:21:45.136Z,612
2016-11-30T07:22:45.121Z,640
2016-11-30T07:23:45.105Z,696
2016-11-30T07:24:45.093Z,744
2016-11-30T07:25:45.081Z,780
2016-11-30T07:26:45.066Z,772
2016-11-30T07:27:45.079Z,740
2016-11-30T07:28:45.045Z,720
2016-11-30T07:29:45.023Z,700
2016-11-30T07:30:45.016Z,700
2016-11-30T07:31:45.005Z,720
2016-11-30T07:32:44.987Z,728
2016-11-30T07:33:44.978Z,712
2016-11-30T07:34:44.959Z,708
2016-11-30T07:35:44.984Z,716
2016-11-30T07:36:44.923Z,724
2016-11-30T07:37:44.907Z,764
2016-11-30T07:38:44.904Z,864
2016-11-30T07:39:44.897Z,1004
2016-11-30T07:40:44.880Z,1092
2016-11-30T07:41:44.858Z,1132
2016-11-30T07:42:44.876Z,1144
2016-11-30T07:43:44.830Z,1092
2016-11-30T07:44:44.828Z,1024
2016-11-30T07:45:44.817Z,976
2016-11-30T07:46:44.798Z,972
2016-11-30T07:47:44.782Z,972
2016-11-30T07:48:45.075Z,956
2016-11-30T07:49:44.766Z,960
2016-11-30T07:50:44.744Z,972
2016-11-30T07:51:44.730Z,980
2016-11-30T07:52:44.745Z,980
2016-11-30T07:53:44.698Z,968
2016-11-30T07:54:44.691Z,956
2016-11-30T07:55:44.674Z,952
2016-11-30T07:56:44.665Z,940
2016-11-30T07:57:44.657Z,924
2016-11-30T07:58:44.944Z,960
2016-11-30T07:59:44.619Z,1028
2016-11-30T08:00:44.616Z,1068
2016-11-30T08:01:44.607Z,1052
2016-11-30T08:02:44.588Z,1024
2016-11-30T08:03:44.574Z,1068
2016-11-30T08:04:44.564Z,1144
2016-11-30T08:05:44.547Z,1128
2016-11-30T08:06:44.527Z,1124
2016-11-30T08:07:44.535Z,1148
2016-11-30T08:08:44.510Z,1184
2016-11-30T08:09:44.488Z,1216
2016-11-30T08:10:44.483Z,1236
2016-11-30T08:11:44.493Z,1176
2016-11-30T08:12:44.461Z,1156
2016-11-30T08:13:44.445Z,1184
2016-11-30T08:14:44.729Z,1256
2016-11-30T08:15:44.722Z,1312
2016-11-30T08:16:44.412Z,1320
2016-11-30T08:17:44.398Z,1356
2016-11-30T08:18:44.379Z,1372
2016-11-30T08:19:44.366Z,1356
2016-11-30T08:20:44.356Z,1340
2016-11-30T08:21:44.339Z,1420
2016-11-30T08:22:44.328Z,1512
2016-11-30T08:23:44.321Z,1604
2016-11-30T08:24:44.299Z,1684
2016-11-30T08:25:44.290Z,1688
2016-11-30T08:26:44.282Z,1788
2016-11-30T08:27:44.278Z,1904
2016-11-30T08:28:44.253Z,1932
2016-11-30T08:29:44.240Z,2100
2016-11-30T08:30:44.228Z,2300
2016-11-30T08:31:44.215Z,2436
2016-11-30T08:32:44.207Z,2232
2016-11-30T08:33:44.490Z,1848
2016-11-30T08:34:44.187Z,1556
2016-11-30T08:35:44.164Z,1680
2016-11-30T08:36:44.152Z,1764
2016-11-30T08:37:44.148Z,1712
2016-11-30T08:38:44.132Z,1748
2016-11-30T08:39:44.116Z,1764
2016-11-30T08:40:44.096Z,1548
2016-11-30T08:41:44.088Z,1396
2016-11-30T08:42:44.081Z,1292
2016-11-30T08:43:44.069Z,1380
2016-11-30T08:44:44.053Z,1364
2016-11-30T08:45:44.043Z,1312
2016-11-30T08:46:44.035Z,1316
2016-11-30T08:47:44.012Z,1344
2016-11-30T08:48:44.005Z,1264
2016-11-30T08:49:43.996Z,1184
2016-11-30T08:50:43.979Z,1156
2016-11-30T08:51:43.976Z,1192
2016-11-30T08:52:43.953Z,1252
2016-11-30T08:53:43.944Z,1396
2016-11-30T08:54:43.927Z,1436
2016-11-30T08:55:43.919Z,1312
2016-11-30T08:56:43.905Z,1284
2016-11-30T08:57:43.896Z,1476
2016-11-30T08:58:43.908Z,1700
2016-11-30T08:59:43.872Z,1632
2016-11-30T09:00:43.854Z,1560
2016-11-30T09:01:43.838Z,1672
2016-11-30T09:02:43.831Z,1764
2016-11-30T09:03:44.119Z,1748
2016-11-30T09:04:43.809Z,1668
2016-11-30T09:05:43.793Z,1840
2016-11-30T09:06:43.787Z,2116
2016-11-30T09:07:43.775Z,2632
2016-11-30T09:08:43.751Z,3072
2016-11-30T09:09:44.043Z,3724
2016-11-30T09:10:43.736Z,3816
2016-11-30T09:11:43.723Z,3528
2016-11-30T09:12:43.707Z,3164
2016-11-30T09:13:43.692Z,2976
2016-11-30T09:14:43.685Z,2616
2016-11-30T09:15:43.671Z,2684
2016-11-30T09:16:43.650Z,2808
2016-11-30T09:17:43.643Z,2636
2016-11-30T09:18:43.632Z,2480
2016-11-30T09:19:43.618Z,2568
2016-11-30T09:20:43.611Z,2388
2016-11-30T09:21:43.586Z,2280
2016-11-30T09:22:43.790Z,2240
2016-11-30T09:23:43.578Z,2336
2016-11-30T09:24:43.559Z,2588
2016-11-30T09:25:43.555Z,2944
2016-11-30T09:26:43.542Z,3288
2016-11-30T09:27:43.523Z,2924
2016-11-30T09:28:43.512Z,2680
2016-11-30T09:29:43.504Z,2156
2016-11-30T09:30:43.488Z,2044
2016-11-30T09:31:43.473Z,2288
2016-11-30T09:32:43.463Z,2612
2016-11-30T09:33:43.446Z,2636
2016-11-30T09:34:43.434Z,3224
2016-11-30T09:35:43.728Z,4152
2016-11-30T09:36:43.414Z,4952
2016-11-30T09:37:43.396Z,5400
2016-11-30T09:38:43.393Z,5172
2016-11-30T09:39:43.377Z,4012
2016-11-30T09:40:43.363Z,3956
2016-11-30T09:41:43.381Z,3896
2016-11-30T09:42:43.345Z,4020
2016-11-30T09:43:43.336Z,3472
2016-11-30T09:44:43.317Z,2496
2016-11-30T09:45:43.310Z,1576
2016-11-30T09:46:43.288Z,1400
2016-11-30T09:47:43.285Z,1404
2016-11-30T09:48:43.268Z,1584
2016-11-30T09:49:43.282Z,2504
2016-11-30T09:50:43.245Z,3012
2016-11-30T09:51:43.226Z,2944
2016-11-30T09:52:43.213Z,3168
2016-11-30T09:53:43.212Z,3760
2016-11-30T09:54:43.199Z,3376
2016-11-30T09:55:43.492Z,3552
2016-11-30T09:56:43.176Z,4032
2016-11-30T09:57:43.161Z,3440
2016-11-30T09:58:43.156Z,2600
2016-11-30T09:59:43.138Z,2388
2016-11-30T10:00:43.129Z,2300
2016-11-30T10:01:43.117Z,2284
2016-11-30T10:02:43.108Z,2264
2016-11-30T10:03:43.091Z,2332
2016-11-30T10:04:43.077Z,2684
2016-11-30T10:05:43.370Z,2880
2016-11-30T10:06:43.064Z,3596
2016-11-30T10:07:43.367Z,3260
2016-11-30T10:08:43.033Z,3004
2016-11-30T10:09:43.226Z,2180
2016-11-30T10:10:43.241Z,2216
2016-11-30T10:11:43.001Z,2316
2016-11-30T10:12:42.983Z,2640
2016-11-30T10:13:42.971Z,2360
2016-11-30T10:14:42.955Z,2036
2016-11-30T10:15:42.942Z,2252
2016-11-30T10:16:42.933Z,2312
2016-11-30T10:17:42.927Z,2516
2016-11-30T10:18:42.928Z,2644
2016-11-30T10:19:42.898Z,2764
2016-11-30T10:20:42.881Z,2736
2016-11-30T10:21:42.869Z,2300
2016-11-30T10:22:42.860Z,2280
2016-11-30T10:23:42.852Z,2216
2016-11-30T10:24:42.845Z,2004
2016-11-30T10:25:42.827Z,2004
2016-11-30T10:26:42.810Z,2004
2016-11-30T10:27:42.802Z,2080
2016-11-30T10:28:42.831Z,2432
2016-11-30T10:29:42.796Z,3184
2016-11-30T10:30:42.765Z,3520
2016-11-30T10:31:42.753Z,3828
2016-11-30T10:32:42.740Z,4444
2016-11-30T10:33:42.727Z,4356
2016-11-30T10:34:42.721Z,4392
2016-11-30T10:35:42.697Z,4264
2016-11-30T10:36:42.689Z,4756
2016-11-30T10:37:42.678Z,5156
2016-11-30T10:38:42.662Z,5960
2016-11-30T10:39:42.656Z,6232
2016-11-30T10:40:42.648Z,5656
2016-11-30T10:41:42.629Z,5100
2016-11-30T10:42:42.621Z,4928
2016-11-30T10:43:42.617Z,6020
2016-11-30T10:44:42.597Z,6660
2016-11-30T10:45:42.585Z,6468
2016-11-30T10:46:42.787Z,5796
2016-11-30T10:47:42.568Z,5924
2016-11-30T10:48:42.550Z,5848
2016-11-30T10:49:42.538Z,5288
2016-11-30T10:50:42.531Z,4888
2016-11-30T10:51:42.517Z,4600
2016-11-30T10:52:42.500Z,4476
2016-11-30T10:53:42.499Z,4132
2016-11-30T10:54:42.495Z,4120
2016-11-30T10:55:42.801Z,4284
2016-11-30T10:56:42.453Z,4200
2016-11-30T10:57:42.451Z,4456
2016-11-30T10:58:42.464Z,4460
2016-11-30T10:59:42.424Z,4060
2016-11-30T11:00:42.414Z,4028
2016-11-30T11:01:42.409Z,4112
2016-11-30T11:02:42.395Z,4396
2016-11-30T11:03:42.408Z,4212
2016-11-30T11:04:42.369Z,3876
2016-11-30T11:05:42.357Z,3972
2016-11-30T11:06:42.350Z,3720
2016-11-30T11:07:42.330Z,3536
2016-11-30T11:08:42.328Z,3436
2016-11-30T11:09:42.310Z,3728
2016-11-30T11:10:42.332Z,3744
2016-11-30T11:11:42.291Z,3480
2016-11-30T11:12:42.583Z,3772
2016-11-30T11:13:42.271Z,4092
2016-11-30T11:14:42.566Z,4260
2016-11-30T11:15:42.249Z,4708
2016-11-30T11:16:42.238Z,4924
2016-11-30T11:17:42.222Z,5436
2016-11-30T11:18:42.214Z,5864
2016-11-30T11:19:42.216Z,6176
2016-11-30T11:20:42.199Z,6188
2016-11-30T11:21:42.179Z,6344
2016-11-30T11:22:42.176Z,6364
2016-11-30T11:23:42.164Z,6152
2016-11-30T11:24:42.156Z,6136
2016-11-30T11:25:42.141Z,5788
2016-11-30T11:26:42.140Z,5388
2016-11-30T11:27:42.120Z,5288
2016-11-30T11:28:42.119Z,5268
2016-11-30T11:29:42.094Z,5424
2016-11-30T11:30:42.381Z,5364
2016-11-30T11:31:42.069Z,5096
2016-11-30T11:32:42.071Z,4872
2016-11-30T11:33:42.058Z,4888
2016-11-30T11:34:42.049Z,4804
2016-11-30T11:35:42.036Z,4512
2016-11-30T11:36:42.020Z,4908
2016-11-30T11:37:42.016Z,4912
2016-11-30T11:38:42.303Z,4840
2016-11-30T11:39:41.996Z,4724
2016-11-30T11:40:41.978Z,4592
2016-11-30T11:41:41.974Z,4324
2016-11-30T11:42:41.971Z,3856
2016-11-30T11:43:41.946Z,3852
2016-11-30T11:44:41.940Z,3800
2016-11-30T11:45:41.933Z,3716
2016-11-30T11:46:41.912Z,3640
2016-11-30T11:47:41.908Z,3956
2016-11-30T11:48:41.899Z,3880
2016-11-30T11:49:41.913Z,3932
2016-11-30T11:50:41.884Z,3624
2016-11-30T11:51:41.865Z,3604
2016-11-30T11:52:41.860Z,3852
2016-11-30T11:53:41.845Z,3920
2016-11-30T11:54:42.141Z,3644
2016-11-30T11:55:41.823Z,3620
2016-11-30T11:56:41.819Z,3648
2016-11-30T11:57:41.811Z,3724
2016-11-30T11:58:41.795Z,4148
2016-11-30T11:59:41.784Z,4452
2016-11-30T12:00:41.768Z,4588
2016-11-30T12:01:41.765Z,4276
2016-11-30T12:02:41.763Z,4536
2016-11-30T12:03:41.748Z,4788
2016-11-30T12:04:41.730Z,4904
2016-11-30T12:05:41.729Z,5148
2016-11-30T12:06:42.016Z,4980
2016-11-30T12:07:41.700Z,4800
2016-11-30T12:08:41.687Z,4472
2016-11-30T12:09:41.677Z,4284
2016-11-30T12:10:41.672Z,4024
2016-11-30T12:11:41.653Z,3792
2016-11-30T12:12:41.655Z,3732
2016-11-30T12:13:41.645Z,3728
2016-11-30T12:14:41.629Z,3896
2016-11-30T12:15:41.622Z,4344
2016-11-30T12:16:41.612Z,4480
2016-11-30T12:17:41.597Z,5136
2016-11-30T12:18:41.593Z,5132
2016-11-30T12:19:41.576Z,5212
2016-11-30T12:20:41.562Z,5492
2016-11-30T12:21:41.853Z,5340
2016-11-30T12:22:41.848Z,5144
2016-11-30T12:23:41.533Z,5200
2016-11-30T12:24:41.522Z,5028
2016-11-30T12:25:41.521Z,4840
2016-11-30T12:26:41.511Z,4720
2016-11-30T12:27:41.496Z,4424
2016-11-30T12:28:41.488Z,4400
2016-11-30T12:29:41.476Z,4108
2016-11-30T12:30:41.469Z,3664
2016-11-30T12:31:41.747Z,3640
2016-11-30T12:32:41.447Z,3520
2016-11-30T12:33:41.439Z,3384
2016-11-30T12:34:41.421Z,3232
2016-11-30T12:35:41.721Z,3348
2016-11-30T12:36:41.405Z,3500
2016-11-30T12:37:41.395Z,3268
2016-11-30T12:38:41.384Z,3200
2016-11-30T12:39:41.372Z,3160
2016-11-30T12:40:41.374Z,3316
2016-11-30T12:41:41.350Z,3292
2016-11-30T12:42:41.346Z,3368
2016-11-30T12:43:41.329Z,3620
2016-11-30T12:44:41.327Z,3636
2016-11-30T12:45:41.614Z,3572
2016-11-30T12:46:41.297Z,3336
2016-11-30T12:47:41.287Z,3404
2016-11-30T12:48:41.281Z,3504
2016-11-30T12:49:41.275Z,3572
2016-11-30T12:50:41.256Z,3328
2016-11-30T12:51:41.243Z,3332
2016-11-30T12:52:41.542Z,3452
2016-11-30T12:53:41.544Z,3348
2016-11-30T12:54:41.221Z,3152
2016-11-30T12:55:41.211Z,2752
2016-11-30T12:56:41.235Z,2392
2016-11-30T12:57:41.190Z,2304
2016-11-30T12:58:41.177Z,2108
2016-11-30T12:59:41.168Z,2052
2016-11-30T13:00:41.157Z,1940
2016-11-30T13:01:41.148Z,1944
2016-11-30T13:02:41.151Z,1964
2016-11-30T13:03:41.124Z,2004
2016-11-30T13:04:41.120Z,1936
2016-11-30T13:05:41.138Z,1936
2016-11-30T13:06:41.094Z,1968
2016-11-30T13:07:41.085Z,1816
2016-11-30T13:08:41.074Z,1676
2016-11-30T13:09:41.062Z,1552
2016-11-30T13:10:41.053Z,1416
2016-11-30T13:11:41.049Z,1260
2016-11-30T13:12:41.330Z,1236
2016-11-30T13:13:41.017Z,1232
2016-11-30T13:14:41.027Z,1300
2016-11-30T13:15:41.002Z,1364
2016-11-30T13:16:40.996Z,1396
2016-11-30T13:17:40.975Z,1200
2016-11-30T13:18:40.971Z,1208
2016-11-30T13:19:41.273Z,1208
2016-11-30T13:20:41.242Z,1300
2016-11-30T13:21:40.943Z,1240
2016-11-30T13:22:40.924Z,1236
2016-11-30T13:23:40.948Z,1236
2016-11-30T13:24:40.910Z,1228
2016-11-30T13:25:40.900Z,1180
2016-11-30T13:26:40.888Z,1120
2016-11-30T13:27:40.875Z,1116
2016-11-30T13:28:40.861Z,956
2016-11-30T13:29:40.850Z,952
2016-11-30T13:30:40.840Z,936
2016-11-30T13:31:40.836Z,944
2016-11-30T13:32:40.815Z,840
2016-11-30T13:33:40.818Z,808
2016-11-30T13:34:40.794Z,884
2016-11-30T13:35:40.787Z,956
2016-11-30T13:36:40.777Z,884
2016-11-30T13:37:40.764Z,888
2016-11-30T13:38:40.753Z,820
2016-11-30T13:39:41.044Z,800
2016-11-30T13:40:40.731Z,876
2016-11-30T13:41:40.712Z,920
2016-11-30T13:42:40.737Z,788
2016-11-30T13:43:40.699Z,740
2016-11-30T13:44:40.689Z,644
2016-11-30T13:45:40.673Z,676
2016-11-30T13:46:40.651Z,624
2016-11-30T13:47:40.656Z,612
2016-11-30T13:48:40.636Z,536
2016-11-30T13:49:40.635Z,512
2016-11-30T13:50:40.614Z,532
2016-11-30T13:51:40.900Z,528
2016-11-30T13:52:40.598Z,488
2016-11-30T13:53:40.583Z,448
2016-11-30T13:54:40.775Z,468
2016-11-30T13:55:40.562Z,488
2016-11-30T13:56:40.548Z,556
2016-11-30T13:57:40.540Z,524
2016-11-30T13:58:40.524Z,476
2016-11-30T13:59:40.518Z,440
2016-11-30T14:00:40.492Z,424
2016-11-30T14:01:40.487Z,412